Impacts METAR Board INFO
IDs:

KTLH - Tallahassee Intl, FL, US

Updated at: 0637 UTC 18 Feb 2018
Potential Impact None Slight Moderate High
Time17/18Z 17/19Z 17/20Z 17/21Z 17/22Z 17/23Z 18/00Z 18/01Z 18/02Z 18/03Z 18/04Z 18/05Z 18/06Z
VIS10 10 10 10 10 10 10 10 10 10 10 8 10
CIG40 60 -- -- -- -- -- -- -- -- 3 3 3
CoverBKNBKNSCTSCTFEWSCTSCTCLRCLRFEWBKNOVCBKN
FltCatVFRVFRVFRVFRVFRVFRVFRVFRVFRVFRLIFRLIFRLIFR
WX------------------BCFG------
WDir2302502302502502402301901801701601800
WSpd7 11 13 11 9 6 7 4 4 3 4 4 0
WGst-- 17 21 -- -- -- -- -- -- -- -- -- --
Raw hourly METARs
KTLH 171753Z 23007KT 10SM BKN040 BKN048 BKN250 25/18 A3017 RMK AO2 SLP214 60000 T02500183 10250 20189 58004
KTLH 171853Z 25011G17KT 10SM FEW030 BKN060 BKN250 26/17 A3015 RMK AO2 SLP207 T02560172
KTLH 171953Z 23013G21KT 10SM FEW041 SCT065 27/17 A3014 RMK AO2 SLP204 T02720167
KTLH 172053Z 25011KT 10SM SCT070 27/16 A3014 RMK AO2 SLP204 T02670156 56009
KTLH 172153Z 25009KT 10SM FEW070 FEW250 27/14 A3014 RMK AO2 SLP204 T02670144
KTLH 172253Z 24006KT 10SM SCT080 25/15 A3014 RMK AO2 SLP206 T02500150
KTLH 172353Z 23007KT 10SM SCT085 SCT250 23/16 A3015 RMK AO2 SLP207 T02330156 10278 20233 53003
KTLH 180053Z 19004KT 10SM CLR 21/17 A3016 RMK AO2 SLP211 T02110172
KTLH 180153Z 18004KT 10SM CLR 20/19 A3016 RMK AO2 SLP212 T02000189
KTLH 180253Z 17003KT 10SM BCFG FEW004 19/19 A3018 RMK AO2 SLP217 T01890189 53010
KTLH 180353Z 16004KT 10SM BKN003 19/19 A3017 RMK AO2 SLP217 LAST T01890189
KTLH 180453Z AUTO 18004KT 8SM OVC003 19/19 A3017 RMK AO2 SLP214 T01890189 402780161
KTLH 180553Z AUTO 00000KT 10SM BKN003 18/18 A3016 RMK AO2 SLP211 T01830183 10233 20183 58006